To NAV CANADA Home Page Login to a new session Search on AWWS site Disclaimer Vers la page française équivalente Tips FAQ What's new on the site To the Forecasts and Observations / NOTAM section To "File a Flight Plan" website Publications and other links Update of the User's profile FIC Telephone Numbers My Weather Data Folder Route Weather Data Regional Weather Data Local Weather Data To the Forecasts and Observations / NOTAM section
Request Generated 01/26/2023 at 21:20:17 UTC . Weather information available at that time is displayed.

METAR/TAF

CLYDE RIVER/NU    (show WxCam)

METAR CYCY 262100Z AUTO 26002KT 9SM OVC060 M30/M34 A2974 RMK SLP079=
METAR CYCY 262000Z 29005KT 15SM FEW022 BKN070 M32/M35 A2972 RMK SC1AC6 SC TR SLP072=
METAR CYCY 261900Z 29002KT 15SM FEW021 BKN070 M33/M36 A2970 RMK SC1AC6 SC TR SLP064=

TAF CYCY 261840Z 2619/2707 28006KT P6SM BKN080 BKN200 TEMPO
2619/2701 P6SM -SN BKN040 BKN080
FM270100 30010KT P6SM -SN SCT010 BKN040 TEMPO 2701/2707 2SM -SN
BKN010 OVC040
BECMG 2701/2703 30015KT
RMK FCST BASED ON AUTO OBS. NXT FCST BY 270100Z
Your time UTC time
Weather data provided by Environment Canada and NAV CANADA